sensor_id;sensor_type;location;lat;lon;timestamp;temperature;humidity
17178;DHT22;8704;52.006;4.374;2023-08-01T00:01:50;16.40;1.00
17178;DHT22;8704;52.006;4.374;2023-08-01T00:04:18;16.40;2.80
17178;DHT22;8704;52.006;4.374;2023-08-01T00:06:46;16.30;1.00
17178;DHT22;8704;52.006;4.374;2023-08-01T00:09:15;16.30;1.00
17178;DHT22;8704;52.006;4.374;2023-08-01T00:11:44;16.30;99.90
17178;DHT22;8704;52.006;4.374;2023-08-01T00:14:12;16.30;1.00
17178;DHT22;8704;52.006;4.374;2023-08-01T00:16:40;16.30;1.00
17178;DHT22;8704;52.006;4.374;2023-08-01T00:19:09;16.30;99.90
17178;DHT22;8704;52.006;4.374;2023-08-01T00:21:37;16.30;1.00
17178;DHT22;8704;52.006;4.374;2023-08-01T00:24:05;16.20;1.00
17178;DHT22;8704;52.006;4.374;2023-08-01T00:26:35;16.20;99.90
17178;DHT22;8704;52.006;4.374;2023-08-01T00:29:04;16.30;1.00
17178;DHT22;8704;52.006;4.374;2023-08-01T00:31:32;16.20;37.60
17178;DHT22;8704;52.006;4.374;2023-08-01T00:34:01;16.20;99.90
17178;DHT22;8704;52.006;4.374;2023-08-01T00:36:29;16.20;99.90
17178;DHT22;8704;52.006;4.374;2023-08-01T00:38:57;16.20;1.00
17178;DHT22;8704;52.006;4.374;2023-08-01T00:41:25;16.20;1.00
17178;DHT22;8704;52.006;4.374;2023-08-01T00:43:53;16.20;1.00
17178;DHT22;8704;52.006;4.374;2023-08-01T00:46:23;16.20;1.00
17178;DHT22;8704;52.006;4.374;2023-08-01T00:48:51;16.20;1.00
17178;DHT22;8704;52.006;4.374;2023-08-01T00:51:19;16.20;99.90
17178;DHT22;8704;52.006;4.374;2023-08-01T00:53:48;16.20;99.90
17178;DHT22;8704;52.006;4.374;2023-08-01T00:56:16;16.20;1.00
17178;DHT22;8704;52.006;4.374;2023-08-01T00:58:44;16.20;1.00
17178;DHT22;8704;52.006;4.374;2023-08-01T01:01:12;16.20;1.00
17178;DHT22;8704;52.006;4.374;2023-08-01T01:03:42;16.20;1.00
17178;DHT22;8704;52.006;4.374;2023-08-01T01:06:13;16.20;30.30
17178;DHT22;8704;52.006;4.374;2023-08-01T01:08:44;16.20;99.90
17178;DHT22;8704;52.006;4.374;2023-08-01T01:11:12;16.30;99.90
17178;DHT22;8704;52.006;4.374;2023-08-01T01:13:40;16.30;99.90
17178;DHT22;8704;52.006;4.374;2023-08-01T01:16:08;16.30;99.90
17178;DHT22;8704;52.006;4.374;2023-08-01T01:18:36;16.40;1.00
17178;DHT22;8704;52.006;4.374;2023-08-01T01:21:06;16.40;1.00
17178;DHT22;8704;52.006;4.374;2023-08-01T01:23:34;16.40;1.00
17178;DHT22;8704;52.006;4.374;2023-08-01T01:26:04;16.40;99.90
17178;DHT22;8704;52.006;4.374;2023-08-01T01:28:35;16.40;1.00
17178;DHT22;8704;52.006;4.374;2023-08-01T01:31:04;16.50;1.00
17178;DHT22;8704;52.006;4.374;2023-08-01T01:33:33;16.50;1.00
17178;DHT22;8704;52.006;4.374;2023-08-01T01:36:01;16.50;99.90
17178;DHT22;8704;52.006;4.374;2023-08-01T01:38:31;16.50;1.00
17178;DHT22;8704;52.006;4.374;2023-08-01T01:40:59;16.50;1.00
17178;DHT22;8704;52.006;4.374;2023-08-01T01:43:27;16.50;99.90
17178;DHT22;8704;52.006;4.374;2023-08-01T01:45:55;16.50;99.90
17178;DHT22;8704;52.006;4.374;2023-08-01T01:48:23;16.60;1.00
17178;DHT22;8704;52.006;4.374;2023-08-01T01:50:51;16.50;1.00
17178;DHT22;8704;52.006;4.374;2023-08-01T01:53:19;16.50;1.00
17178;DHT22;8704;52.006;4.374;2023-08-01T01:55:49;16.60;1.00
17178;DHT22;8704;52.006;4.374;2023-08-01T01:58:17;16.60;1.00
17178;DHT22;8704;52.006;4.374;2023-08-01T02:00:45;16.60;99.90
17178;DHT22;8704;52.006;4.374;2023-08-01T02:03:13;16.60;1.00
17178;DHT22;8704;52.006;4.374;2023-08-01T02:05:41;16.60;99.90
17178;DHT22;8704;52.006;4.374;2023-08-01T02:08:09;16.60;58.40
17178;DHT22;8704;52.006;4.374;2023-08-01T02:10:37;16.60;1.00
17178;DHT22;8704;52.006;4.374;2023-08-01T02:13:08;16.60;1.00
17178;DHT22;8704;52.006;4.374;2023-08-01T02:15:36;16.60;1.00
17178;DHT22;8704;52.006;4.374;2023-08-01T02:18:04;16.70;1.00
17178;DHT22;8704;52.006;4.374;2023-08-01T02:20:33;16.60;1.00
17178;DHT22;8704;52.006;4.374;2023-08-01T02:23:01;16.60;99.90
17178;DHT22;8704;52.006;4.374;2023-08-01T02:25:29;16.60;1.00
17178;DHT22;8704;52.006;4.374;2023-08-01T02:27:57;16.60;1.00
17178;DHT22;8704;52.006;4.374;2023-08-01T02:30:26;16.60;99.90
17178;DHT22;8704;52.006;4.374;2023-08-01T02:32:56;16.60;99.70
17178;DHT22;8704;52.006;4.374;2023-08-01T02:35:24;16.70;99.90
17178;DHT22;8704;52.006;4.374;2023-08-01T02:37:52;16.60;99.90
17178;DHT22;8704;52.006;4.374;2023-08-01T02:40:20;16.60;99.90
17178;DHT22;8704;52.006;4.374;2023-08-01T02:42:48;16.60;99.90
17178;DHT22;8704;52.006;4.374;2023-08-01T02:45:16;16.60;99.90
17178;DHT22;8704;52.006;4.374;2023-08-01T02:47:46;16.60;99.90
17178;DHT22;8704;52.006;4.374;2023-08-01T02:50:14;16.60;1.00
17178;DHT22;8704;52.006;4.374;2023-08-01T02:52:42;16.60;99.90
17178;DHT22;8704;52.006;4.374;2023-08-01T02:55:10;16.70;1.00
17178;DHT22;8704;52.006;4.374;2023-08-01T02:57:38;16.70;1.00
17178;DHT22;8704;52.006;4.374;2023-08-01T03:00:07;16.70;1.00
17178;DHT22;8704;52.006;4.374;2023-08-01T03:02:38;16.70;1.00
17178;DHT22;8704;52.006;4.374;2023-08-01T03:05:09;16.70;10.00
17178;DHT22;8704;52.006;4.374;2023-08-01T03:07:37;16.60;1.00
17178;DHT22;8704;52.006;4.374;2023-08-01T03:10:06;16.70;1.00
17178;DHT22;8704;52.006;4.374;2023-08-01T03:12:37;16.70;99.90
17178;DHT22;8704;52.006;4.374;2023-08-01T03:15:06;16.70;99.90
17178;DHT22;8704;52.006;4.374;2023-08-01T03:17:35;16.70;99.90
17178;DHT22;8704;52.006;4.374;2023-08-01T03:20:04;16.70;99.90
17178;DHT22;8704;52.006;4.374;2023-08-01T03:22:39;16.70;99.90
17178;DHT22;8704;52.006;4.374;2023-08-01T03:25:08;16.70;99.90
17178;DHT22;8704;52.006;4.374;2023-08-01T03:27:36;16.70;1.00
17178;DHT22;8704;52.006;4.374;2023-08-01T03:30:06;16.70;1.00
17178;DHT22;8704;52.006;4.374;2023-08-01T03:32:36;16.60;99.90
17178;DHT22;8704;52.006;4.374;2023-08-01T03:35:05;16.60;1.00
17178;DHT22;8704;52.006;4.374;2023-08-01T03:37:33;16.60;1.00
17178;DHT22;8704;52.006;4.374;2023-08-01T03:40:03;16.60;1.00
17178;DHT22;8704;52.006;4.374;2023-08-01T03:42:32;16.60;99.90
17178;DHT22;8704;52.006;4.374;2023-08-01T03:45:00;16.50;99.90
17178;DHT22;8704;52.006;4.374;2023-08-01T03:47:28;16.50;99.90
17178;DHT22;8704;52.006;4.374;2023-08-01T03:49:56;16.50;99.90
17178;DHT22;8704;52.006;4.374;2023-08-01T03:52:24;16.50;99.90
17178;DHT22;8704;52.006;4.374;2023-08-01T03:54:53;16.50;1.00
17178;DHT22;8704;52.006;4.374;2023-08-01T03:57:23;16.50;1.00
17178;DHT22;8704;52.006;4.374;2023-08-01T03:59:51;16.40;1.00
17178;DHT22;8704;52.006;4.374;2023-08-01T04:02:19;16.40;1.00
17178;DHT22;8704;52.006;4.374;2023-08-01T04:04:47;16.40;99.90
17178;DHT22;8704;52.006;4.374;2023-08-01T04:07:15;16.40;99.90
17178;DHT22;8704;52.006;4.374;2023-08-01T04:09:43;16.40;1.00
17178;DHT22;8704;52.006;4.374;2023-08-01T04:12:12;16.40;1.00
17178;DHT22;8704;52.006;4.374;2023-08-01T04:14:41;16.40;1.00
17178;DHT22;8704;52.006;4.374;2023-08-01T04:17:12;16.40;99.90
17178;DHT22;8704;52.006;4.374;2023-08-01T04:19:40;16.40;99.90
17178;DHT22;8704;52.006;4.374;2023-08-01T04:22:08;16.40;99.90
17178;DHT22;8704;52.006;4.374;2023-08-01T04:24:37;16.40;1.00
17178;DHT22;8704;52.006;4.374;2023-08-01T04:27:05;16.40;99.90
17178;DHT22;8704;52.006;4.374;2023-08-01T04:29:34;16.40;99.90
17178;DHT22;8704;52.006;4.374;2023-08-01T04:32:03;16.40;99.90
17178;DHT22;8704;52.006;4.374;2023-08-01T04:34:32;16.40;1.00
17178;DHT22;8704;52.006;4.374;2023-08-01T04:37:00;16.40;90.90
17178;DHT22;8704;52.006;4.374;2023-08-01T04:39:28;16.40;1.00
17178;DHT22;8704;52.006;4.374;2023-08-01T04:41:58;16.40;1.00
17178;DHT22;8704;52.006;4.374;2023-08-01T04:44:27;16.40;1.00
17178;DHT22;8704;52.006;4.374;2023-08-01T04:46:56;16.40;99.90
17178;DHT22;8704;52.006;4.374;2023-08-01T04:49:25;16.40;1.00
17178;DHT22;8704;52.006;4.374;2023-08-01T04:51:56;16.40;1.00
17178;DHT22;8704;52.006;4.374;2023-08-01T04:54:24;16.40;99.90
17178;DHT22;8704;52.006;4.374;2023-08-01T04:56:53;16.40;61.50
17178;DHT22;8704;52.006;4.374;2023-08-01T04:59:21;16.40;1.00
17178;DHT22;8704;52.006;4.374;2023-08-01T05:01:49;16.50;1.00
17178;DHT22;8704;52.006;4.374;2023-08-01T05:04:17;16.50;1.00
17178;DHT22;8704;52.006;4.374;2023-08-01T05:06:47;16.50;1.00
17178;DHT22;8704;52.006;4.374;2023-08-01T05:09:15;16.50;1.00
17178;DHT22;8704;52.006;4.374;2023-08-01T05:11:43;16.50;1.00
17178;DHT22;8704;52.006;4.374;2023-08-01T05:14:11;16.50;1.00
17178;DHT22;8704;52.006;4.374;2023-08-01T05:16:39;16.60;1.00
17178;DHT22;8704;52.006;4.374;2023-08-01T05:19:08;16.50;1.00
17178;DHT22;8704;52.006;4.374;2023-08-01T05:21:36;16.50;1.00
17178;DHT22;8704;52.006;4.374;2023-08-01T05:24:06;16.50;1.00
17178;DHT22;8704;52.006;4.374;2023-08-01T05:26:34;16.50;1.00
17178;DHT22;8704;52.006;4.374;2023-08-01T05:29:02;16.50;1.00
17178;DHT22;8704;52.006;4.374;2023-08-01T05:31:30;16.50;1.00
17178;DHT22;8704;52.006;4.374;2023-08-01T05:33:58;16.50;99.90
17178;DHT22;8704;52.006;4.374;2023-08-01T05:36:26;16.60;99.90
17178;DHT22;8704;52.006;4.374;2023-08-01T05:38:54;16.60;99.90
17178;DHT22;8704;52.006;4.374;2023-08-01T05:41:24;16.70;1.00
17178;DHT22;8704;52.006;4.374;2023-08-01T05:43:52;16.70;99.90
17178;DHT22;8704;52.006;4.374;2023-08-01T05:46:21;16.80;99.90
17178;DHT22;8704;52.006;4.374;2023-08-01T05:48:49;16.80;99.90
17178;DHT22;8704;52.006;4.374;2023-08-01T05:51:17;16.80;88.30
17178;DHT22;8704;52.006;4.374;2023-08-01T05:53:45;16.80;99.90
17178;DHT22;8704;52.006;4.374;2023-08-01T05:56:13;16.90;99.90
17178;DHT22;8704;52.006;4.374;2023-08-01T05:58:43;16.00;99.90
17178;DHT22;8704;52.006;4.374;2023-08-01T06:01:12;17.00;29.10
17178;DHT22;8704;52.006;4.374;2023-08-01T06:03:40;17.00;2.60
17178;DHT22;8704;52.006;4.374;2023-08-01T06:06:08;17.10;1.00
17178;DHT22;8704;52.006;4.374;2023-08-01T06:08:36;17.00;1.00
17178;DHT22;8704;52.006;4.374;2023-08-01T06:11:04;17.00;99.90
17178;DHT22;8704;52.006;4.374;2023-08-01T06:13:33;17.00;99.90
17178;DHT22;8704;52.006;4.374;2023-08-01T06:16:05;17.00;1.00
17178;DHT22;8704;52.006;4.374;2023-08-01T06:18:33;17.00;5.20
17178;DHT22;8704;52.006;4.374;2023-08-01T06:21:01;17.00;68.60
17178;DHT22;8704;52.006;4.374;2023-08-01T06:23:30;17.10;1.00
17178;DHT22;8704;52.006;4.374;2023-08-01T06:25:59;17.20;1.00
17178;DHT22;8704;52.006;4.374;2023-08-01T06:28:27;17.30;1.00
17178;DHT22;8704;52.006;4.374;2023-08-01T06:30:55;17.30;1.00
17178;DHT22;8704;52.006;4.374;2023-08-01T06:33:24;17.30;1.00
17178;DHT22;8704;52.006;4.374;2023-08-01T06:35:54;17.30;1.00
17178;DHT22;8704;52.006;4.374;2023-08-01T06:38:22;17.20;29.10
17178;DHT22;8704;52.006;4.374;2023-08-01T06:40:50;17.20;99.90
17178;DHT22;8704;52.006;4.374;2023-08-01T06:43:18;17.20;99.90
17178;DHT22;8704;52.006;4.374;2023-08-01T06:45:49;17.20;99.90
17178;DHT22;8704;52.006;4.374;2023-08-01T06:48:17;17.20;99.90
17178;DHT22;8704;52.006;4.374;2023-08-01T06:50:47;17.20;99.90
17178;DHT22;8704;52.006;4.374;2023-08-01T06:53:15;17.30;99.90
17178;DHT22;8704;52.006;4.374;2023-08-01T06:55:44;17.30;53.00
17178;DHT22;8704;52.006;4.374;2023-08-01T06:58:13;17.30;1.00
17178;DHT22;8704;52.006;4.374;2023-08-01T07:00:42;17.30;1.00
17178;DHT22;8704;52.006;4.374;2023-08-01T07:03:10;17.30;1.00
17178;DHT22;8704;52.006;4.374;2023-08-01T07:05:38;17.40;1.00
17178;DHT22;8704;52.006;4.374;2023-08-01T07:08:07;17.40;1.00
17178;DHT22;8704;52.006;4.374;2023-08-01T07:10:36;17.50;1.00
17178;DHT22;8704;52.006;4.374;2023-08-01T07:13:04;17.50;99.90
17178;DHT22;8704;52.006;4.374;2023-08-01T07:15:32;17.50;99.90
17178;DHT22;8704;52.006;4.374;2023-08-01T07:18:00;17.60;99.90
17178;DHT22;8704;52.006;4.374;2023-08-01T07:20:29;17.60;99.90
17178;DHT22;8704;52.006;4.374;2023-08-01T07:22:58;17.60;99.90
17178;DHT22;8704;52.006;4.374;2023-08-01T07:25:27;17.60;99.90
17178;DHT22;8704;52.006;4.374;2023-08-01T07:27:55;17.60;99.90
17178;DHT22;8704;52.006;4.374;2023-08-01T07:30:24;17.70;99.90
17178;DHT22;8704;52.006;4.374;2023-08-01T07:32:52;17.80;99.90
17178;DHT22;8704;52.006;4.374;2023-08-01T07:35:20;17.80;99.90
17178;DHT22;8704;52.006;4.374;2023-08-01T07:37:48;17.90;99.90
17178;DHT22;8704;52.006;4.374;2023-08-01T07:40:17;17.90;99.90
17178;DHT22;8704;52.006;4.374;2023-08-01T07:42:47;17.80;99.90
17178;DHT22;8704;52.006;4.374;2023-08-01T07:45:15;17.80;99.90
17178;DHT22;8704;52.006;4.374;2023-08-01T07:47:43;17.90;99.90
17178;DHT22;8704;52.006;4.374;2023-08-01T07:50:11;18.00;99.90
17178;DHT22;8704;52.006;4.374;2023-08-01T07:52:39;18.00;99.90
17178;DHT22;8704;52.006;4.374;2023-08-01T07:55:08;18.00;99.90
17178;DHT22;8704;52.006;4.374;2023-08-01T07:57:36;18.00;99.90
17178;DHT22;8704;52.006;4.374;2023-08-01T08:00:07;18.10;99.90
17178;DHT22;8704;52.006;4.374;2023-08-01T08:02:36;18.20;99.90
17178;DHT22;8704;52.006;4.374;2023-08-01T08:05:05;18.30;99.90
17178;DHT22;8704;52.006;4.374;2023-08-01T08:07:33;18.40;99.90
17178;DHT22;8704;52.006;4.374;2023-08-01T08:10:01;18.40;99.90
17178;DHT22;8704;52.006;4.374;2023-08-01T08:12:29;18.40;99.90
17178;DHT22;8704;52.006;4.374;2023-08-01T08:14:57;18.40;99.90
17178;DHT22;8704;52.006;4.374;2023-08-01T08:17:27;18.40;99.90
17178;DHT22;8704;52.006;4.374;2023-08-01T08:19:55;18.50;99.90
17178;DHT22;8704;52.006;4.374;2023-08-01T08:22:23;18.50;99.90
17178;DHT22;8704;52.006;4.374;2023-08-01T08:24:51;18.40;99.90
17178;DHT22;8704;52.006;4.374;2023-08-01T08:27:19;18.30;99.90
17178;DHT22;8704;52.006;4.374;2023-08-01T08:29:47;18.20;99.90
17178;DHT22;8704;52.006;4.374;2023-08-01T08:32:15;18.20;99.90
17178;DHT22;8704;52.006;4.374;2023-08-01T08:34:45;18.20;99.90
17178;DHT22;8704;52.006;4.374;2023-08-01T08:37:13;18.20;99.90
17178;DHT22;8704;52.006;4.374;2023-08-01T08:39:41;18.20;99.90
17178;DHT22;8704;52.006;4.374;2023-08-01T08:42:10;18.20;99.90
17178;DHT22;8704;52.006;4.374;2023-08-01T08:44:42;18.30;99.90
17178;DHT22;8704;52.006;4.374;2023-08-01T08:47:11;18.40;99.90
17178;DHT22;8704;52.006;4.374;2023-08-01T08:49:40;18.40;97.10
17178;DHT22;8704;52.006;4.374;2023-08-01T08:52:11;18.50;99.90
17178;DHT22;8704;52.006;4.374;2023-08-01T08:54:40;18.50;99.90
17178;DHT22;8704;52.006;4.374;2023-08-01T08:57:08;18.40;66.60
17178;DHT22;8704;52.006;4.374;2023-08-01T08:59:36;18.40;55.70
17178;DHT22;8704;52.006;4.374;2023-08-01T09:02:05;18.50;62.00
17178;DHT22;8704;52.006;4.374;2023-08-01T09:04:34;18.60;65.20
17178;DHT22;8704;52.006;4.374;2023-08-01T09:07:06;18.60;82.40
17178;DHT22;8704;52.006;4.374;2023-08-01T09:09:37;18.60;37.70
17178;DHT22;8704;52.006;4.374;2023-08-01T09:12:06;18.60;39.30
17178;DHT22;8704;52.006;4.374;2023-08-01T09:14:35;18.60;57.90
17178;DHT22;8704;52.006;4.374;2023-08-01T09:17:07;18.60;32.90
17178;DHT22;8704;52.006;4.374;2023-08-01T09:19:36;18.70;76.60
17178;DHT22;8704;52.006;4.374;2023-08-01T09:22:10;18.70;56.10
17178;DHT22;8704;52.006;4.374;2023-08-01T09:24:50;18.90;99.90
17178;DHT22;8704;52.006;4.374;2023-08-01T09:27:21;19.00;99.90
17178;DHT22;8704;52.006;4.374;2023-08-01T09:29:50;19.20;86.90
17178;DHT22;8704;52.006;4.374;2023-08-01T09:32:18;19.20;62.40
17178;DHT22;8704;52.006;4.374;2023-08-01T09:34:46;19.10;33.10
17178;DHT22;8704;52.006;4.374;2023-08-01T09:37:14;19.20;25.90
17178;DHT22;8704;52.006;4.374;2023-08-01T09:39:44;19.10;25.20
17178;DHT22;8704;52.006;4.374;2023-08-01T09:42:20;19.00;26.30
17178;DHT22;8704;52.006;4.374;2023-08-01T09:44:49;19.00;4.90
17178;DHT22;8704;52.006;4.374;2023-08-01T09:47:17;19.10;12.90
17178;DHT22;8704;52.006;4.374;2023-08-01T09:49:48;19.10;8.30
17178;DHT22;8704;52.006;4.374;2023-08-01T09:52:26;19.20;51.00
17178;DHT22;8704;52.006;4.374;2023-08-01T09:54:56;19.20;5.20
17178;DHT22;8704;52.006;4.374;2023-08-01T09:57:27;19.20;1.00
17178;DHT22;8704;52.006;4.374;2023-08-01T09:59:56;19.20;1.00
17178;DHT22;8704;52.006;4.374;2023-08-01T10:02:25;19.20;1.00
17178;DHT22;8704;52.006;4.374;2023-08-01T10:04:54;19.20;7.30
17178;DHT22;8704;52.006;4.374;2023-08-01T10:07:26;19.40;6.60
17178;DHT22;8704;52.006;4.374;2023-08-01T10:09:59;19.30;1.00
17178;DHT22;8704;52.006;4.374;2023-08-01T10:12:28;19.20;1.00
17178;DHT22;8704;52.006;4.374;2023-08-01T10:14:57;19.40;1.60
17178;DHT22;8704;52.006;4.374;2023-08-01T10:17:26;19.40;1.00
17178;DHT22;8704;52.006;4.374;2023-08-01T10:19:56;19.60;12.40
17178;DHT22;8704;52.006;4.374;2023-08-01T10:22:26;19.70;35.50
17178;DHT22;8704;52.006;4.374;2023-08-01T10:24:55;19.60;2.50
17178;DHT22;8704;52.006;4.374;2023-08-01T10:27:25;19.50;1.00
17178;DHT22;8704;52.006;4.374;2023-08-01T10:29:56;19.40;1.00
17178;DHT22;8704;52.006;4.374;2023-08-01T10:32:29;19.40;1.00
17178;DHT22;8704;52.006;4.374;2023-08-01T10:34:58;19.50;1.00
17178;DHT22;8704;52.006;4.374;2023-08-01T10:37:26;19.80;12.40
17178;DHT22;8704;52.006;4.374;2023-08-01T10:39:58;19.80;1.00
17178;DHT22;8704;52.006;4.374;2023-08-01T10:42:37;19.50;1.00
17178;DHT22;8704;52.006;4.374;2023-08-01T10:45:06;19.60;1.00
17178;DHT22;8704;52.006;4.374;2023-08-01T10:47:34;19.90;1.00
17178;DHT22;8704;52.006;4.374;2023-08-01T10:50:13;19.90;1.00
17178;DHT22;8704;52.006;4.374;2023-08-01T10:52:42;19.90;1.00
17178;DHT22;8704;52.006;4.374;2023-08-01T10:55:11;20.10;1.00
17178;DHT22;8704;52.006;4.374;2023-08-01T10:57:49;20.10;1.00
17178;DHT22;8704;52.006;4.374;2023-08-01T11:00:17;20.00;1.00
17178;DHT22;8704;52.006;4.374;2023-08-01T11:02:50;20.00;1.00
17178;DHT22;8704;52.006;4.374;2023-08-01T11:05:18;19.80;1.00
17178;DHT22;8704;52.006;4.374;2023-08-01T11:07:54;20.00;1.00
17178;DHT22;8704;52.006;4.374;2023-08-01T11:10:27;20.10;1.00
17178;DHT22;8704;52.006;4.374;2023-08-01T11:12:56;19.80;1.00
17178;DHT22;8704;52.006;4.374;2023-08-01T11:15:24;20.00;1.00
17178;DHT22;8704;52.006;4.374;2023-08-01T11:17:54;20.20;1.00
17178;DHT22;8704;52.006;4.374;2023-08-01T11:20:24;20.30;1.00
17178;DHT22;8704;52.006;4.374;2023-08-01T11:22:54;20.40;1.00
17178;DHT22;8704;52.006;4.374;2023-08-01T11:25:33;20.60;1.00
17178;DHT22;8704;52.006;4.374;2023-08-01T11:28:05;20.90;1.00
17178;DHT22;8704;52.006;4.374;2023-08-01T11:30:34;20.90;1.00
17178;DHT22;8704;52.006;4.374;2023-08-01T11:33:12;20.80;1.00
17178;DHT22;8704;52.006;4.374;2023-08-01T11:35:41;20.50;1.00
17178;DHT22;8704;52.006;4.374;2023-08-01T11:38:09;20.80;1.00
17178;DHT22;8704;52.006;4.374;2023-08-01T11:40:38;20.80;1.00
17178;DHT22;8704;52.006;4.374;2023-08-01T11:43:08;20.60;1.00
17178;DHT22;8704;52.006;4.374;2023-08-01T11:45:36;20.70;1.00
17178;DHT22;8704;52.006;4.374;2023-08-01T11:48:04;20.80;1.00
17178;DHT22;8704;52.006;4.374;2023-08-01T11:50:32;20.80;1.00
17178;DHT22;8704;52.006;4.374;2023-08-01T11:53:01;20.70;1.00
17178;DHT22;8704;52.006;4.374;2023-08-01T11:55:29;20.70;1.00
17178;DHT22;8704;52.006;4.374;2023-08-01T11:57:57;20.50;1.00
17178;DHT22;8704;52.006;4.374;2023-08-01T12:00:28;20.30;1.00
17178;DHT22;8704;52.006;4.374;2023-08-01T12:03:06;20.60;1.00
17178;DHT22;8704;52.006;4.374;2023-08-01T12:05:39;20.40;1.00
17178;DHT22;8704;52.006;4.374;2023-08-01T12:08:13;20.30;1.00
17178;DHT22;8704;52.006;4.374;2023-08-01T12:10:43;20.30;1.00
17178;DHT22;8704;52.006;4.374;2023-08-01T12:13:21;20.10;1.00
17178;DHT22;8704;52.006;4.374;2023-08-01T12:15:52;20.30;1.00
17178;DHT22;8704;52.006;4.374;2023-08-01T12:18:22;20.40;1.00
17178;DHT22;8704;52.006;4.374;2023-08-01T12:21:10;20.30;1.00
17178;DHT22;8704;52.006;4.374;2023-08-01T12:23:39;20.30;1.00
17178;DHT22;8704;52.006;4.374;2023-08-01T12:26:07;20.30;1.00
17178;DHT22;8704;52.006;4.374;2023-08-01T12:28:35;20.30;1.00
17178;DHT22;8704;52.006;4.374;2023-08-01T12:31:05;20.40;1.00
17178;DHT22;8704;52.006;4.374;2023-08-01T12:33:33;20.60;1.00
17178;DHT22;8704;52.006;4.374;2023-08-01T12:36:02;20.70;1.00
17178;DHT22;8704;52.006;4.374;2023-08-01T12:38:31;21.00;1.00
17178;DHT22;8704;52.006;4.374;2023-08-01T12:41:00;21.20;1.00
17178;DHT22;8704;52.006;4.374;2023-08-01T12:43:28;21.70;1.00
17178;DHT22;8704;52.006;4.374;2023-08-01T12:45:56;21.90;1.00
17178;DHT22;8704;52.006;4.374;2023-08-01T12:48:27;22.00;1.00
17178;DHT22;8704;52.006;4.374;2023-08-01T12:50:55;22.30;1.00
17178;DHT22;8704;52.006;4.374;2023-08-01T12:53:24;22.30;1.00
17178;DHT22;8704;52.006;4.374;2023-08-01T12:55:52;22.50;1.00
17178;DHT22;8704;52.006;4.374;2023-08-01T12:58:20;22.70;1.00
17178;DHT22;8704;52.006;4.374;2023-08-01T13:00:48;22.40;1.00
17178;DHT22;8704;52.006;4.374;2023-08-01T13:03:17;22.20;1.00
17178;DHT22;8704;52.006;4.374;2023-08-01T13:05:46;22.10;1.00
17178;DHT22;8704;52.006;4.374;2023-08-01T13:08:14;22.00;1.00
17178;DHT22;8704;52.006;4.374;2023-08-01T13:10:42;21.90;1.00
17178;DHT22;8704;52.006;4.374;2023-08-01T13:13:12;21.90;1.00
17178;DHT22;8704;52.006;4.374;2023-08-01T13:15:41;21.90;1.00
17178;DHT22;8704;52.006;4.374;2023-08-01T13:18:09;22.00;1.00
17178;DHT22;8704;52.006;4.374;2023-08-01T13:20:37;22.00;1.00
17178;DHT22;8704;52.006;4.374;2023-08-01T13:23:07;21.90;1.00
17178;DHT22;8704;52.006;4.374;2023-08-01T13:25:36;21.90;1.00
17178;DHT22;8704;52.006;4.374;2023-08-01T13:28:04;21.80;1.00
17178;DHT22;8704;52.006;4.374;2023-08-01T13:30:32;21.80;1.00
17178;DHT22;8704;52.006;4.374;2023-08-01T13:33:00;21.80;1.00
17178;DHT22;8704;52.006;4.374;2023-08-01T13:35:28;21.80;1.00
17178;DHT22;8704;52.006;4.374;2023-08-01T13:37:56;21.80;1.00
17178;DHT22;8704;52.006;4.374;2023-08-01T13:40:26;21.80;1.00
17178;DHT22;8704;52.006;4.374;2023-08-01T13:42:54;21.90;1.00
17178;DHT22;8704;52.006;4.374;2023-08-01T13:45:22;22.00;1.00
17178;DHT22;8704;52.006;4.374;2023-08-01T13:47:50;21.80;1.00
17178;DHT22;8704;52.006;4.374;2023-08-01T13:50:19;21.80;1.00
17178;DHT22;8704;52.006;4.374;2023-08-01T13:52:47;21.80;1.00
17178;DHT22;8704;52.006;4.374;2023-08-01T13:55:15;21.80;1.00
17178;DHT22;8704;52.006;4.374;2023-08-01T13:57:45;22.00;1.00
17178;DHT22;8704;52.006;4.374;2023-08-01T14:00:14;21.90;1.00
17178;DHT22;8704;52.006;4.374;2023-08-01T14:02:42;21.90;1.00
17178;DHT22;8704;52.006;4.374;2023-08-01T14:05:11;21.90;1.00
17178;DHT22;8704;52.006;4.374;2023-08-01T14:07:39;21.90;1.00
17178;DHT22;8704;52.006;4.374;2023-08-01T14:10:10;21.80;1.00
17178;DHT22;8704;52.006;4.374;2023-08-01T14:12:38;21.70;1.00
17178;DHT22;8704;52.006;4.374;2023-08-01T14:15:08;21.80;1.00
17178;DHT22;8704;52.006;4.374;2023-08-01T14:17:38;21.70;1.00
17178;DHT22;8704;52.006;4.374;2023-08-01T14:20:07;21.80;1.00
17178;DHT22;8704;52.006;4.374;2023-08-01T14:22:36;21.60;1.00
17178;DHT22;8704;52.006;4.374;2023-08-01T14:25:05;21.50;1.00
17178;DHT22;8704;52.006;4.374;2023-08-01T14:27:33;21.40;1.00
17178;DHT22;8704;52.006;4.374;2023-08-01T14:30:02;21.10;1.00
17178;DHT22;8704;52.006;4.374;2023-08-01T14:32:37;20.60;1.00
17178;DHT22;8704;52.006;4.374;2023-08-01T14:35:06;20.20;1.00
17178;DHT22;8704;52.006;4.374;2023-08-01T14:37:34;20.00;1.00
17178;DHT22;8704;52.006;4.374;2023-08-01T14:40:04;20.00;1.00
17178;DHT22;8704;52.006;4.374;2023-08-01T14:42:33;19.90;1.00
17178;DHT22;8704;52.006;4.374;2023-08-01T14:45:01;19.90;19.00
17178;DHT22;8704;52.006;4.374;2023-08-01T14:47:30;19.90;16.20
17178;DHT22;8704;52.006;4.374;2023-08-01T14:49:59;19.90;34.90
17178;DHT22;8704;52.006;4.374;2023-08-01T14:52:27;19.90;44.10
17178;DHT22;8704;52.006;4.374;2023-08-01T14:54:56;19.90;11.30
17178;DHT22;8704;52.006;4.374;2023-08-01T14:57:25;19.90;53.60
17178;DHT22;8704;52.006;4.374;2023-08-01T14:59:53;19.80;1.00
17178;DHT22;8704;52.006;4.374;2023-08-01T15:02:21;19.90;30.10
17178;DHT22;8704;52.006;4.374;2023-08-01T15:04:50;20.10;10.70
17178;DHT22;8704;52.006;4.374;2023-08-01T15:07:23;20.30;1.00
17178;DHT22;8704;52.006;4.374;2023-08-01T15:09:51;20.70;46.40
17178;DHT22;8704;52.006;4.374;2023-08-01T15:12:21;20.80;1.00
17178;DHT22;8704;52.006;4.374;2023-08-01T15:14:51;20.80;1.00
17178;DHT22;8704;52.006;4.374;2023-08-01T15:17:19;20.80;1.00
17178;DHT22;8704;52.006;4.374;2023-08-01T15:19:48;20.70;1.00
17178;DHT22;8704;52.006;4.374;2023-08-01T15:22:17;20.60;1.00
17178;DHT22;8704;52.006;4.374;2023-08-01T15:24:47;20.60;1.00
17178;DHT22;8704;52.006;4.374;2023-08-01T15:27:15;20.50;1.00
17178;DHT22;8704;52.006;4.374;2023-08-01T15:29:45;20.40;1.00
17178;DHT22;8704;52.006;4.374;2023-08-01T15:32:13;20.40;1.00
17178;DHT22;8704;52.006;4.374;2023-08-01T15:34:41;20.50;1.00
17178;DHT22;8704;52.006;4.374;2023-08-01T15:37:10;20.60;1.00
17178;DHT22;8704;52.006;4.374;2023-08-01T15:39:38;20.50;1.00
17178;DHT22;8704;52.006;4.374;2023-08-01T15:42:07;20.60;1.00
17178;DHT22;8704;52.006;4.374;2023-08-01T15:44:35;20.60;1.00
17178;DHT22;8704;52.006;4.374;2023-08-01T15:47:04;20.60;1.00
17178;DHT22;8704;52.006;4.374;2023-08-01T15:49:32;20.50;1.00
17178;DHT22;8704;52.006;4.374;2023-08-01T15:52:01;20.40;1.00
17178;DHT22;8704;52.006;4.374;2023-08-01T15:54:29;20.40;1.00
17178;DHT22;8704;52.006;4.374;2023-08-01T15:56:59;20.40;1.00
17178;DHT22;8704;52.006;4.374;2023-08-01T15:59:28;20.20;1.00
17178;DHT22;8704;52.006;4.374;2023-08-01T16:01:56;20.20;1.00
17178;DHT22;8704;52.006;4.374;2023-08-01T16:04:24;20.30;1.00
17178;DHT22;8704;52.006;4.374;2023-08-01T16:06:52;20.40;1.00